sensor_id;sensor_type;location;lat;lon;timestamp;temperature;humidity
68719;DHT22;55696;52.138;5.444;2023-04-24T00:00:48;13.70;70.70
68719;DHT22;55696;52.138;5.444;2023-04-24T00:03:15;13.60;70.40
68719;DHT22;55696;52.138;5.444;2023-04-24T00:05:42;13.70;70.60
68719;DHT22;55696;52.138;5.444;2023-04-24T00:08:09;13.60;70.40
68719;DHT22;55696;52.138;5.444;2023-04-24T00:10:36;12.00;69.70
68719;DHT22;55696;52.138;5.444;2023-04-24T00:13:03;13.60;70.40
68719;DHT22;55696;52.138;5.444;2023-04-24T00:15:29;13.70;70.60
68719;DHT22;55696;52.138;5.444;2023-04-24T00:17:57;13.60;70.60
68719;DHT22;55696;52.138;5.444;2023-04-24T00:20:23;13.60;70.30
68719;DHT22;55696;52.138;5.444;2023-04-24T00:22:50;13.60;70.40
68719;DHT22;55696;52.138;5.444;2023-04-24T00:25:17;13.50;70.60
68719;DHT22;55696;52.138;5.444;2023-04-24T00:27:44;13.60;70.60
68719;DHT22;55696;52.138;5.444;2023-04-24T00:30:11;13.60;70.50
68719;DHT22;55696;52.138;5.444;2023-04-24T00:32:37;13.60;70.70
68719;DHT22;55696;52.138;5.444;2023-04-24T00:35:05;13.50;70.60
68719;DHT22;55696;52.138;5.444;2023-04-24T00:37:33;13.60;71.40
68719;DHT22;55696;52.138;5.444;2023-04-24T00:39:59;13.60;70.70
68719;DHT22;55696;52.138;5.444;2023-04-24T00:42:26;13.50;70.70
68719;DHT22;55696;52.138;5.444;2023-04-24T00:44:53;13.50;70.70
68719;DHT22;55696;52.138;5.444;2023-04-24T00:47:20;13.50;70.70
68719;DHT22;55696;52.138;5.444;2023-04-24T00:49:48;13.40;70.80
68719;DHT22;55696;52.138;5.444;2023-04-24T00:52:15;13.40;70.80
68719;DHT22;55696;52.138;5.444;2023-04-24T00:54:44;13.40;70.70
68719;DHT22;55696;52.138;5.444;2023-04-24T00:57:13;13.50;71.40
68719;DHT22;55696;52.138;5.444;2023-04-24T00:59:42;13.40;71.90
68719;DHT22;55696;52.138;5.444;2023-04-24T01:02:10;13.40;71.40
68719;DHT22;55696;52.138;5.444;2023-04-24T01:04:39;13.40;71.20
68719;DHT22;55696;52.138;5.444;2023-04-24T01:07:06;13.50;71.90
68719;DHT22;55696;52.138;5.444;2023-04-24T01:09:41;13.90;71.10
68719;DHT22;55696;52.138;5.444;2023-04-24T01:12:11;13.40;72.50
68719;DHT22;55696;52.138;5.444;2023-04-24T01:14:38;13.40;70.70
68719;DHT22;55696;52.138;5.444;2023-04-24T01:17:05;13.40;70.90
68719;DHT22;55696;52.138;5.444;2023-04-24T01:19:32;13.50;70.90
68719;DHT22;55696;52.138;5.444;2023-04-24T01:22:02;13.40;70.70
68719;DHT22;55696;52.138;5.444;2023-04-24T01:24:29;14.20;72.70
68719;DHT22;55696;52.138;5.444;2023-04-24T01:26:56;13.60;70.90
68719;DHT22;55696;52.138;5.444;2023-04-24T01:29:23;13.50;70.90
68719;DHT22;55696;52.138;5.444;2023-04-24T01:31:50;13.60;71.20
68719;DHT22;55696;52.138;5.444;2023-04-24T01:34:17;13.60;70.90
68719;DHT22;55696;52.138;5.444;2023-04-24T01:36:45;13.60;70.50
68719;DHT22;55696;52.138;5.444;2023-04-24T01:39:13;13.70;71.70
68719;DHT22;55696;52.138;5.444;2023-04-24T01:41:40;13.50;70.80
68719;DHT22;55696;52.138;5.444;2023-04-24T01:44:07;13.60;70.80
68719;DHT22;55696;52.138;5.444;2023-04-24T01:46:34;13.60;70.80
68719;DHT22;55696;52.138;5.444;2023-04-24T01:49:03;13.60;71.00
68719;DHT22;55696;52.138;5.444;2023-04-24T01:51:30;13.70;70.70
68719;DHT22;55696;52.138;5.444;2023-04-24T01:53:57;13.60;70.60
68719;DHT22;55696;52.138;5.444;2023-04-24T01:56:24;13.70;71.00
68719;DHT22;55696;52.138;5.444;2023-04-24T01:58:52;13.60;71.40
68719;DHT22;55696;52.138;5.444;2023-04-24T02:01:20;13.60;71.30
68719;DHT22;55696;52.138;5.444;2023-04-24T02:03:47;14.00;71.70
68719;DHT22;55696;52.138;5.444;2023-04-24T02:06:14;13.60;70.80
68719;DHT22;55696;52.138;5.444;2023-04-24T02:08:42;13.60;71.00
68719;DHT22;55696;52.138;5.444;2023-04-24T02:11:09;13.90;71.30
68719;DHT22;55696;52.138;5.444;2023-04-24T02:13:36;13.70;71.50
68719;DHT22;55696;52.138;5.444;2023-04-24T02:16:03;13.80;70.70
68719;DHT22;55696;52.138;5.444;2023-04-24T02:18:30;13.70;70.70
68719;DHT22;55696;52.138;5.444;2023-04-24T02:20:57;13.60;70.60
68719;DHT22;55696;52.138;5.444;2023-04-24T02:23:23;13.60;70.70
68719;DHT22;55696;52.138;5.444;2023-04-24T02:25:50;13.80;70.80
68719;DHT22;55696;52.138;5.444;2023-04-24T02:28:17;13.80;70.70
68719;DHT22;55696;52.138;5.444;2023-04-24T02:30:44;13.80;70.60
68719;DHT22;55696;52.138;5.444;2023-04-24T02:33:11;13.70;70.40
68719;DHT22;55696;52.138;5.444;2023-04-24T02:35:38;13.70;71.10
68719;DHT22;55696;52.138;5.444;2023-04-24T02:38:05;14.40;70.90
68719;DHT22;55696;52.138;5.444;2023-04-24T02:40:32;13.70;70.40
68719;DHT22;55696;52.138;5.444;2023-04-24T02:42:58;13.80;70.40
68719;DHT22;55696;52.138;5.444;2023-04-24T02:45:25;13.80;70.40
68719;DHT22;55696;52.138;5.444;2023-04-24T02:47:53;13.70;70.40
68719;DHT22;55696;52.138;5.444;2023-04-24T02:50:19;13.80;70.40
68719;DHT22;55696;52.138;5.444;2023-04-24T02:52:46;13.70;70.30
68719;DHT22;55696;52.138;5.444;2023-04-24T02:55:13;13.80;70.40
68719;DHT22;55696;52.138;5.444;2023-04-24T02:57:40;13.60;70.20
68719;DHT22;55696;52.138;5.444;2023-04-24T03:00:07;13.70;70.40
68719;DHT22;55696;52.138;5.444;2023-04-24T03:02:35;13.80;70.70
68719;DHT22;55696;52.138;5.444;2023-04-24T03:05:02;14.40;70.70
68719;DHT22;55696;52.138;5.444;2023-04-24T03:07:30;13.80;70.50
68719;DHT22;55696;52.138;5.444;2023-04-24T03:09:59;13.70;70.40
68719;DHT22;55696;52.138;5.444;2023-04-24T03:12:25;13.80;70.70
68719;DHT22;55696;52.138;5.444;2023-04-24T03:14:52;13.70;70.50
68719;DHT22;55696;52.138;5.444;2023-04-24T03:17:19;13.70;70.50
68719;DHT22;55696;52.138;5.444;2023-04-24T03:19:46;13.70;70.60
68719;DHT22;55696;52.138;5.444;2023-04-24T03:22:13;13.90;70.80
68719;DHT22;55696;52.138;5.444;2023-04-24T03:24:40;13.70;70.90
68719;DHT22;55696;52.138;5.444;2023-04-24T03:27:07;13.80;70.50
68719;DHT22;55696;52.138;5.444;2023-04-24T03:30:00;13.70;70.50
68719;DHT22;55696;52.138;5.444;2023-04-24T03:32:38;13.70;70.70
68719;DHT22;55696;52.138;5.444;2023-04-24T03:35:08;13.70;70.70
68719;DHT22;55696;52.138;5.444;2023-04-24T03:37:35;13.70;71.10
68719;DHT22;55696;52.138;5.444;2023-04-24T03:40:21;13.70;71.10
68719;DHT22;55696;52.138;5.444;2023-04-24T03:42:47;13.60;70.70
68719;DHT22;55696;52.138;5.444;2023-04-24T03:45:15;14.60;71.40
68719;DHT22;55696;52.138;5.444;2023-04-24T03:47:46;13.60;71.00
68719;DHT22;55696;52.138;5.444;2023-04-24T03:50:14;13.70;70.90
68719;DHT22;55696;52.138;5.444;2023-04-24T03:52:42;13.60;71.60
68719;DHT22;55696;52.138;5.444;2023-04-24T03:55:11;13.70;70.70
68719;DHT22;55696;52.138;5.444;2023-04-24T03:57:43;13.60;70.50
68719;DHT22;55696;52.138;5.444;2023-04-24T04:00:18;13.70;70.60
68719;DHT22;55696;52.138;5.444;2023-04-24T04:02:51;13.80;70.60
68719;DHT22;55696;52.138;5.444;2023-04-24T04:05:18;13.80;70.30
68719;DHT22;55696;52.138;5.444;2023-04-24T04:07:46;13.70;70.50
68719;DHT22;55696;52.138;5.444;2023-04-24T04:10:13;13.70;71.70
68719;DHT22;55696;52.138;5.444;2023-04-24T04:12:39;13.70;70.60
68719;DHT22;55696;52.138;5.444;2023-04-24T04:15:07;13.70;70.70
68719;DHT22;55696;52.138;5.444;2023-04-24T04:17:34;13.70;70.60
68719;DHT22;55696;52.138;5.444;2023-04-24T04:20:05;13.70;70.50
68719;DHT22;55696;52.138;5.444;2023-04-24T04:22:37;13.70;70.70
68719;DHT22;55696;52.138;5.444;2023-04-24T04:25:07;13.50;70.30
68719;DHT22;55696;52.138;5.444;2023-04-24T04:27:35;13.60;70.40
68719;DHT22;55696;52.138;5.444;2023-04-24T04:30:08;13.40;70.40
68719;DHT22;55696;52.138;5.444;2023-04-24T04:32:45;13.50;70.90
68719;DHT22;55696;52.138;5.444;2023-04-24T04:35:13;13.40;70.50
68719;DHT22;55696;52.138;5.444;2023-04-24T04:37:39;13.50;70.60
68719;DHT22;55696;52.138;5.444;2023-04-24T04:40:26;13.50;70.50
68719;DHT22;55696;52.138;5.444;2023-04-24T04:43:00;13.50;71.50
68719;DHT22;55696;52.138;5.444;2023-04-24T04:45:31;13.70;71.60
68719;DHT22;55696;52.138;5.444;2023-04-24T04:48:19;13.50;70.90
68719;DHT22;55696;52.138;5.444;2023-04-24T04:50:46;14.30;71.20
68719;DHT22;55696;52.138;5.444;2023-04-24T04:53:13;13.50;70.90
68719;DHT22;55696;52.138;5.444;2023-04-24T04:55:41;13.60;71.00
68719;DHT22;55696;52.138;5.444;2023-04-24T04:58:10;13.70;71.30
68719;DHT22;55696;52.138;5.444;2023-04-24T05:00:37;13.70;70.80
68719;DHT22;55696;52.138;5.444;2023-04-24T05:03:15;14.40;71.10
68719;DHT22;55696;52.138;5.444;2023-04-24T05:05:52;13.70;70.80
68719;DHT22;55696;52.138;5.444;2023-04-24T05:08:19;13.70;71.20
68719;DHT22;55696;52.138;5.444;2023-04-24T05:10:54;13.70;71.10
68719;DHT22;55696;52.138;5.444;2023-04-24T05:13:21;13.70;71.70
68719;DHT22;55696;52.138;5.444;2023-04-24T05:16:07;13.80;71.20
68719;DHT22;55696;52.138;5.444;2023-04-24T05:18:34;13.80;71.10
68719;DHT22;55696;52.138;5.444;2023-04-24T05:21:01;13.80;70.80
68719;DHT22;55696;52.138;5.444;2023-04-24T05:23:28;14.00;70.70
68719;DHT22;55696;52.138;5.444;2023-04-24T05:25:56;14.40;71.10
68719;DHT22;55696;52.138;5.444;2023-04-24T05:28:23;13.80;70.60
68719;DHT22;55696;52.138;5.444;2023-04-24T05:31:02;13.90;70.50
68719;DHT22;55696;52.138;5.444;2023-04-24T05:33:29;13.90;71.20
68719;DHT22;55696;52.138;5.444;2023-04-24T05:35:57;14.00;70.40
68719;DHT22;55696;52.138;5.444;2023-04-24T05:38:24;13.90;70.20
68719;DHT22;55696;52.138;5.444;2023-04-24T05:40:51;13.90;70.00
68719;DHT22;55696;52.138;5.444;2023-04-24T05:43:18;13.90;70.00
68719;DHT22;55696;52.138;5.444;2023-04-24T05:45:44;13.80;70.30
68719;DHT22;55696;52.138;5.444;2023-04-24T05:48:11;13.80;70.20
68719;DHT22;55696;52.138;5.444;2023-04-24T05:50:38;13.80;70.20
68719;DHT22;55696;52.138;5.444;2023-04-24T05:53:05;13.80;70.20
68719;DHT22;55696;52.138;5.444;2023-04-24T05:55:35;13.70;70.70
68719;DHT22;55696;52.138;5.444;2023-04-24T05:58:02;13.70;71.70
68719;DHT22;55696;52.138;5.444;2023-04-24T06:00:30;13.60;71.30
68719;DHT22;55696;52.138;5.444;2023-04-24T06:03:03;13.50;71.40
68719;DHT22;55696;52.138;5.444;2023-04-24T06:05:31;13.60;71.50
68719;DHT22;55696;52.138;5.444;2023-04-24T06:07:58;13.40;71.50
68719;DHT22;55696;52.138;5.444;2023-04-24T06:10:29;13.30;71.50
68719;DHT22;55696;52.138;5.444;2023-04-24T06:12:56;13.50;71.70
68719;DHT22;55696;52.138;5.444;2023-04-24T06:15:29;13.20;71.70
68719;DHT22;55696;52.138;5.444;2023-04-24T06:18:01;13.20;73.00
68719;DHT22;55696;52.138;5.444;2023-04-24T06:20:28;13.20;72.10
68719;DHT22;55696;52.138;5.444;2023-04-24T06:22:55;13.20;72.10
68719;DHT22;55696;52.138;5.444;2023-04-24T06:25:24;13.10;72.00
68719;DHT22;55696;52.138;5.444;2023-04-24T06:27:51;13.00;72.00
68719;DHT22;55696;52.138;5.444;2023-04-24T06:30:18;13.00;72.10
68719;DHT22;55696;52.138;5.444;2023-04-24T06:32:44;13.00;72.20
68719;DHT22;55696;52.138;5.444;2023-04-24T06:35:11;13.80;72.40
68719;DHT22;55696;52.138;5.444;2023-04-24T06:37:39;12.80;72.30
68719;DHT22;55696;52.138;5.444;2023-04-24T06:40:07;12.80;72.90
68719;DHT22;55696;52.138;5.444;2023-04-24T06:45:03;13.50;73.20
68719;DHT22;55696;52.138;5.444;2023-04-24T06:47:30;12.80;72.90
68719;DHT22;55696;52.138;5.444;2023-04-24T06:49:56;12.80;73.10
68719;DHT22;55696;52.138;5.444;2023-04-24T06:52:23;12.80;73.00
68719;DHT22;55696;52.138;5.444;2023-04-24T06:54:50;12.70;73.20
68719;DHT22;55696;52.138;5.444;2023-04-24T06:57:17;12.60;73.00
68719;DHT22;55696;52.138;5.444;2023-04-24T06:59:44;12.80;73.60
68719;DHT22;55696;52.138;5.444;2023-04-24T07:02:11;12.80;73.10
68719;DHT22;55696;52.138;5.444;2023-04-24T07:04:38;12.80;73.00
68719;DHT22;55696;52.138;5.444;2023-04-24T07:07:05;12.80;73.00
68719;DHT22;55696;52.138;5.444;2023-04-24T07:09:33;12.80;73.10
68719;DHT22;55696;52.138;5.444;2023-04-24T07:12:01;12.70;72.90
68719;DHT22;55696;52.138;5.444;2023-04-24T07:14:28;12.80;72.90
68719;DHT22;55696;52.138;5.444;2023-04-24T07:16:55;12.70;72.90
68719;DHT22;55696;52.138;5.444;2023-04-24T07:19:23;12.70;72.80
68719;DHT22;55696;52.138;5.444;2023-04-24T07:21:50;12.70;72.90
68719;DHT22;55696;52.138;5.444;2023-04-24T07:24:17;12.60;72.90
68719;DHT22;55696;52.138;5.444;2023-04-24T07:26:46;12.60;72.70
68719;DHT22;55696;52.138;5.444;2023-04-24T07:29:13;12.70;72.80
68719;DHT22;55696;52.138;5.444;2023-04-24T07:31:40;12.60;72.80
68719;DHT22;55696;52.138;5.444;2023-04-24T07:34:07;12.60;72.70
68719;DHT22;55696;52.138;5.444;2023-04-24T07:36:34;13.50;72.90
68719;DHT22;55696;52.138;5.444;2023-04-24T07:39:01;12.60;72.70
68719;DHT22;55696;52.138;5.444;2023-04-24T07:41:28;12.60;72.50
68719;DHT22;55696;52.138;5.444;2023-04-24T07:43:55;11.80;71.90
68719;DHT22;55696;52.138;5.444;2023-04-24T07:46:21;12.60;72.30
68719;DHT22;55696;52.138;5.444;2023-04-24T07:48:50;12.60;72.60
68719;DHT22;55696;52.138;5.444;2023-04-24T07:51:31;12.50;72.60
68719;DHT22;55696;52.138;5.444;2023-04-24T07:54:00;12.50;72.80
68719;DHT22;55696;52.138;5.444;2023-04-24T07:56:26;13.50;72.90
68719;DHT22;55696;52.138;5.444;2023-04-24T07:58:53;12.60;72.20
68719;DHT22;55696;52.138;5.444;2023-04-24T08:01:20;12.60;72.10
68719;DHT22;55696;52.138;5.444;2023-04-24T08:03:47;12.50;72.00
68719;DHT22;55696;52.138;5.444;2023-04-24T08:06:14;12.60;72.40
68719;DHT22;55696;52.138;5.444;2023-04-24T08:08:41;12.80;72.20
68719;DHT22;55696;52.138;5.444;2023-04-24T08:11:08;12.60;72.00
68719;DHT22;55696;52.138;5.444;2023-04-24T08:13:35;12.80;72.10
68719;DHT22;55696;52.138;5.444;2023-04-24T08:16:02;12.70;72.10
68719;DHT22;55696;52.138;5.444;2023-04-24T08:18:29;12.70;72.10
68719;DHT22;55696;52.138;5.444;2023-04-24T08:20:55;12.60;71.80
68719;DHT22;55696;52.138;5.444;2023-04-24T08:23:27;12.60;72.00
68719;DHT22;55696;52.138;5.444;2023-04-24T08:25:56;12.60;71.90
68719;DHT22;55696;52.138;5.444;2023-04-24T08:28:23;12.50;72.70
68719;DHT22;55696;52.138;5.444;2023-04-24T08:30:50;12.40;71.90
68719;DHT22;55696;52.138;5.444;2023-04-24T08:33:23;12.30;72.70
68719;DHT22;55696;52.138;5.444;2023-04-24T08:35:50;12.40;73.40
68719;DHT22;55696;52.138;5.444;2023-04-24T08:38:17;12.40;73.10
68719;DHT22;55696;52.138;5.444;2023-04-24T08:40:44;12.30;72.70
68719;DHT22;55696;52.138;5.444;2023-04-24T08:43:13;12.20;73.90
68719;DHT22;55696;52.138;5.444;2023-04-24T08:45:41;12.30;73.70
68719;DHT22;55696;52.138;5.444;2023-04-24T08:48:08;12.40;72.60
68719;DHT22;55696;52.138;5.444;2023-04-24T08:50:53;12.50;73.30
68719;DHT22;55696;52.138;5.444;2023-04-24T08:53:20;12.40;72.10
68719;DHT22;55696;52.138;5.444;2023-04-24T08:55:48;12.60;72.20
68719;DHT22;55696;52.138;5.444;2023-04-24T08:58:16;12.60;72.40
68719;DHT22;55696;52.138;5.444;2023-04-24T09:00:43;12.60;72.10
68719;DHT22;55696;52.138;5.444;2023-04-24T09:03:16;12.60;70.70
68719;DHT22;55696;52.138;5.444;2023-04-24T09:05:46;12.60;72.10
68719;DHT22;55696;52.138;5.444;2023-04-24T09:08:14;12.80;71.70
68719;DHT22;55696;52.138;5.444;2023-04-24T09:10:41;12.70;68.80
68719;DHT22;55696;52.138;5.444;2023-04-24T09:13:08;13.00;68.80
68719;DHT22;55696;52.138;5.444;2023-04-24T09:15:39;12.80;67.70
68719;DHT22;55696;52.138;5.444;2023-04-24T09:18:07;12.70;68.40
68719;DHT22;55696;52.138;5.444;2023-04-24T09:20:33;13.00;67.60
68719;DHT22;55696;52.138;5.444;2023-04-24T09:23:02;12.90;67.20
68719;DHT22;55696;52.138;5.444;2023-04-24T09:25:32;13.00;66.20
68719;DHT22;55696;52.138;5.444;2023-04-24T09:28:04;13.10;67.50
68719;DHT22;55696;52.138;5.444;2023-04-24T09:30:32;13.20;66.30
68719;DHT22;55696;52.138;5.444;2023-04-24T09:33:15;13.30;65.20
68719;DHT22;55696;52.138;5.444;2023-04-24T09:35:49;13.40;66.90
68719;DHT22;55696;52.138;5.444;2023-04-24T09:38:16;13.60;66.60
68719;DHT22;55696;52.138;5.444;2023-04-24T09:40:43;13.70;64.30
68719;DHT22;55696;52.138;5.444;2023-04-24T09:43:13;13.90;63.80
68719;DHT22;55696;52.138;5.444;2023-04-24T09:45:40;13.90;64.80
68719;DHT22;55696;52.138;5.444;2023-04-24T09:48:10;14.00;63.50
68719;DHT22;55696;52.138;5.444;2023-04-24T09:50:37;14.20;64.30
68719;DHT22;55696;52.138;5.444;2023-04-24T09:53:05;14.30;62.10
68719;DHT22;55696;52.138;5.444;2023-04-24T09:55:39;14.30;63.20
68719;DHT22;55696;52.138;5.444;2023-04-24T09:58:08;14.20;63.30
68719;DHT22;55696;52.138;5.444;2023-04-24T10:00:34;14.00;61.70
68719;DHT22;55696;52.138;5.444;2023-04-24T10:03:03;13.70;61.20
68719;DHT22;55696;52.138;5.444;2023-04-24T10:05:36;13.60;63.00
68719;DHT22;55696;52.138;5.444;2023-04-24T10:08:08;13.50;63.20
68719;DHT22;55696;52.138;5.444;2023-04-24T10:10:42;13.50;63.50
68719;DHT22;55696;52.138;5.444;2023-04-24T10:13:10;13.80;62.30
68719;DHT22;55696;52.138;5.444;2023-04-24T10:15:38;13.90;61.90
68719;DHT22;55696;52.138;5.444;2023-04-24T10:18:07;13.90;61.10
68719;DHT22;55696;52.138;5.444;2023-04-24T10:20:36;14.00;61.70
68719;DHT22;55696;52.138;5.444;2023-04-24T10:23:04;14.00;61.90
68719;DHT22;55696;52.138;5.444;2023-04-24T10:25:33;14.00;60.60
68719;DHT22;55696;52.138;5.444;2023-04-24T10:28:01;14.10;61.30
68719;DHT22;55696;52.138;5.444;2023-04-24T10:30:33;14.50;60.50
68719;DHT22;55696;52.138;5.444;2023-04-24T10:33:05;13.90;60.70
68719;DHT22;55696;52.138;5.444;2023-04-24T10:35:37;13.90;60.00
68719;DHT22;55696;52.138;5.444;2023-04-24T10:38:09;14.00;60.70
68719;DHT22;55696;52.138;5.444;2023-04-24T10:40:37;14.00;60.20
68719;DHT22;55696;52.138;5.444;2023-04-24T10:43:05;14.40;58.10
68719;DHT22;55696;52.138;5.444;2023-04-24T10:45:34;14.40;58.20
68719;DHT22;55696;52.138;5.444;2023-04-24T10:48:03;14.90;57.10
68719;DHT22;55696;52.138;5.444;2023-04-24T10:50:47;14.80;57.50
68719;DHT22;55696;52.138;5.444;2023-04-24T10:53:16;14.90;57.60
68719;DHT22;55696;52.138;5.444;2023-04-24T10:55:46;14.70;56.50
68719;DHT22;55696;52.138;5.444;2023-04-24T10:58:14;14.60;57.30
68719;DHT22;55696;52.138;5.444;2023-04-24T11:00:43;14.50;57.30
68719;DHT22;55696;52.138;5.444;2023-04-24T11:03:32;14.40;57.80
68719;DHT22;55696;52.138;5.444;2023-04-24T11:06:08;14.30;60.20
68719;DHT22;55696;52.138;5.444;2023-04-24T11:08:44;14.20;59.70
68719;DHT22;55696;52.138;5.444;2023-04-24T11:11:12;14.20;60.00
68719;DHT22;55696;52.138;5.444;2023-04-24T11:16:44;13.80;61.70
68719;DHT22;55696;52.138;5.444;2023-04-24T11:24:38;13.60;62.50
68719;DHT22;55696;52.138;5.444;2023-04-24T11:27:13;13.50;63.70
68719;DHT22;55696;52.138;5.444;2023-04-24T11:29:45;13.30;62.60
68719;DHT22;55696;52.138;5.444;2023-04-24T11:34:56;13.70;64.30
68719;DHT22;55696;52.138;5.444;2023-04-24T11:37:26;13.80;63.60
68719;DHT22;55696;52.138;5.444;2023-04-24T11:39:56;14.20;62.80
68719;DHT22;55696;52.138;5.444;2023-04-24T11:42:23;14.80;61.60
68719;DHT22;55696;52.138;5.444;2023-04-24T11:44:53;15.00;59.50
68719;DHT22;55696;52.138;5.444;2023-04-24T11:47:31;15.10;58.90
68719;DHT22;55696;52.138;5.444;2023-04-24T11:50:01;15.00;60.40
68719;DHT22;55696;52.138;5.444;2023-04-24T11:52:29;14.80;59.40
68719;DHT22;55696;52.138;5.444;2023-04-24T11:54:57;14.70;59.60
68719;DHT22;55696;52.138;5.444;2023-04-24T11:57:25;14.90;58.90
68719;DHT22;55696;52.138;5.444;2023-04-24T11:59:54;15.10;58.60
68719;DHT22;55696;52.138;5.444;2023-04-24T12:02:26;15.30;57.30
68719;DHT22;55696;52.138;5.444;2023-04-24T12:04:54;16.20;58.00
68719;DHT22;55696;52.138;5.444;2023-04-24T12:07:22;15.80;55.20
68719;DHT22;55696;52.138;5.444;2023-04-24T12:09:59;15.50;55.00
68719;DHT22;55696;52.138;5.444;2023-04-24T12:12:27;16.30;55.90
68719;DHT22;55696;52.138;5.444;2023-04-24T12:14:56;15.40;54.30
68719;DHT22;55696;52.138;5.444;2023-04-24T12:17:28;16.00;55.80
68719;DHT22;55696;52.138;5.444;2023-04-24T12:20:00;15.00;54.80
68719;DHT22;55696;52.138;5.444;2023-04-24T12:22:28;14.80;56.50
68719;DHT22;55696;52.138;5.444;2023-04-24T12:25:00;14.50;54.90
68719;DHT22;55696;52.138;5.444;2023-04-24T12:27:31;14.40;55.60
68719;DHT22;55696;52.138;5.444;2023-04-24T12:30:01;15.00;58.10
68719;DHT22;55696;52.138;5.444;2023-04-24T12:32:28;14.10;57.30
68719;DHT22;55696;52.138;5.444;2023-04-24T12:34:55;13.90;56.50
68719;DHT22;55696;52.138;5.444;2023-04-24T12:37:24;13.90;57.80
68719;DHT22;55696;52.138;5.444;2023-04-24T12:40:06;14.10;58.50
68719;DHT22;55696;52.138;5.444;2023-04-24T12:42:35;14.20;58.80
68719;DHT22;55696;52.138;5.444;2023-04-24T12:45:06;14.20;56.80
68719;DHT22;55696;52.138;5.444;2023-04-24T12:47:34;14.30;57.00
68719;DHT22;55696;52.138;5.444;2023-04-24T12:50:01;14.30;55.90
68719;DHT22;55696;52.138;5.444;2023-04-24T12:52:29;14.30;55.40
68719;DHT22;55696;52.138;5.444;2023-04-24T12:54:58;14.20;55.30
68719;DHT22;55696;52.138;5.444;2023-04-24T12:57:29;14.10;56.00
68719;DHT22;55696;52.138;5.444;2023-04-24T12:59:58;14.00;56.90
68719;DHT22;55696;52.138;5.444;2023-04-24T13:02:27;13.90;56.90
68719;DHT22;55696;52.138;5.444;2023-04-24T13:04:54;13.70;57.70
68719;DHT22;55696;52.138;5.444;2023-04-24T13:07:21;13.60;57.80
68719;DHT22;55696;52.138;5.444;2023-04-24T13:09:50;14.00;59.10
68719;DHT22;55696;52.138;5.444;2023-04-24T13:12:17;13.30;60.80
68719;DHT22;55696;52.138;5.444;2023-04-24T13:14:44;13.20;61.10
68719;DHT22;55696;52.138;5.444;2023-04-24T13:17:12;13.30;61.30
68719;DHT22;55696;52.138;5.444;2023-04-24T13:19:42;13.20;61.20
68719;DHT22;55696;52.138;5.444;2023-04-24T13:22:10;13.70;62.20
68719;DHT22;55696;52.138;5.444;2023-04-24T13:24:38;13.90;61.20
68719;DHT22;55696;52.138;5.444;2023-04-24T13:27:08;14.00;60.50
68719;DHT22;55696;52.138;5.444;2023-04-24T13:29:36;14.20;58.60
68719;DHT22;55696;52.138;5.444;2023-04-24T13:32:03;14.60;58.20
68719;DHT22;55696;52.138;5.444;2023-04-24T13:34:30;15.10;57.40
68719;DHT22;55696;52.138;5.444;2023-04-24T13:36:57;15.40;54.90
68719;DHT22;55696;52.138;5.444;2023-04-24T13:39:26;16.40;55.10
68719;DHT22;55696;52.138;5.444;2023-04-24T13:41:53;15.50;54.70
68719;DHT22;55696;52.138;5.444;2023-04-24T13:44:21;15.40;53.20
68719;DHT22;55696;52.138;5.444;2023-04-24T13:46:50;15.30;52.60
68719;DHT22;55696;52.138;5.444;2023-04-24T13:49:18;15.10;52.50
68719;DHT22;55696;52.138;5.444;2023-04-24T13:51:45;15.00;52.80
68719;DHT22;55696;52.138;5.444;2023-04-24T13:54:12;14.70;53.00
68719;DHT22;55696;52.138;5.444;2023-04-24T13:56:40;14.50;53.30
68719;DHT22;55696;52.138;5.444;2023-04-24T13:59:07;15.50;54.90
68719;DHT22;55696;52.138;5.444;2023-04-24T14:01:34;14.40;53.70
68719;DHT22;55696;52.138;5.444;2023-04-24T14:04:01;14.30;54.20
68719;DHT22;55696;52.138;5.444;2023-04-24T14:06:28;14.50;54.30
68719;DHT22;55696;52.138;5.444;2023-04-24T14:08:55;15.10;53.10
68719;DHT22;55696;52.138;5.444;2023-04-24T14:11:22;15.30;51.80
68719;DHT22;55696;52.138;5.444;2023-04-24T14:13:49;15.60;51.00
68719;DHT22;55696;52.138;5.444;2023-04-24T14:16:16;16.30;50.20
68719;DHT22;55696;52.138;5.444;2023-04-24T14:18:43;17.40;48.70
68719;DHT22;55696;52.138;5.444;2023-04-24T14:21:09;16.40;48.40
68719;DHT22;55696;52.138;5.444;2023-04-24T14:23:36;16.30;48.40
68719;DHT22;55696;52.138;5.444;2023-04-24T14:26:03;16.20;48.60
68719;DHT22;55696;52.138;5.444;2023-04-24T14:28:30;17.20;48.90
68719;DHT22;55696;52.138;5.444;2023-04-24T14:30:56;16.40;47.40
68719;DHT22;55696;52.138;5.444;2023-04-24T14:33:23;16.30;47.60
68719;DHT22;55696;52.138;5.444;2023-04-24T14:35:50;15.90;47.80
68719;DHT22;55696;52.138;5.444;2023-04-24T14:38:17;16.40;48.40
68719;DHT22;55696;52.138;5.444;2023-04-24T14:40:44;15.20;48.70
68719;DHT22;55696;52.138;5.444;2023-04-24T14:43:30;15.20;49.80
68719;DHT22;55696;52.138;5.444;2023-04-24T14:45:57;15.20;49.90
68719;DHT22;55696;52.138;5.444;2023-04-24T14:48:24;15.10;49.10
68719;DHT22;55696;52.138;5.444;2023-04-24T14:50:51;14.90;49.10
68719;DHT22;55696;52.138;5.444;2023-04-24T14:53:18;15.00;50.00
68719;DHT22;55696;52.138;5.444;2023-04-24T14:55:45;14.70;50.40
68719;DHT22;55696;52.138;5.444;2023-04-24T14:58:12;14.60;51.00
68719;DHT22;55696;52.138;5.444;2023-04-24T15:00:38;14.40;52.60
68719;DHT22;55696;52.138;5.444;2023-04-24T15:03:05;14.70;53.20
68719;DHT22;55696;52.138;5.444;2023-04-24T15:05:33;14.60;53.50
68719;DHT22;55696;52.138;5.444;2023-04-24T15:08:00;14.50;53.70
68719;DHT22;55696;52.138;5.444;2023-04-24T15:10:27;14.50;54.20
68719;DHT22;55696;52.138;5.444;2023-04-24T15:12:55;14.30;54.30
68719;DHT22;55696;52.138;5.444;2023-04-24T15:15:22;14.00;54.40
68719;DHT22;55696;52.138;5.444;2023-04-24T15:17:49;14.00;55.00
68719;DHT22;55696;52.138;5.444;2023-04-24T15:20:16;13.70;55.90
68719;DHT22;55696;52.138;5.444;2023-04-24T15:22:42;13.70;57.00
68719;DHT22;55696;52.138;5.444;2023-04-24T15:25:10;13.80;57.40
68719;DHT22;55696;52.138;5.444;2023-04-24T15:27:44;14.10;56.70
68719;DHT22;55696;52.138;5.444;2023-04-24T15:30:12;14.00;57.40
68719;DHT22;55696;52.138;5.444;2023-04-24T15:32:39;14.00;56.00
68719;DHT22;55696;52.138;5.444;2023-04-24T15:35:06;13.90;55.70
68719;DHT22;55696;52.138;5.444;2023-04-24T15:37:36;14.00;55.80
68719;DHT22;55696;52.138;5.444;2023-04-24T15:40:04;13.80;56.40
68719;DHT22;55696;52.138;5.444;2023-04-24T15:42:34;14.20;56.50
68719;DHT22;55696;52.138;5.444;2023-04-24T15:45:02;14.90;54.30
68719;DHT22;55696;52.138;5.444;2023-04-24T15:47:29;15.50;52.70
68719;DHT22;55696;52.138;5.444;2023-04-24T15:49:57;16.00;50.70
68719;DHT22;55696;52.138;5.444;2023-04-24T15:52:24;16.30;49.80